Time;durP1;ratioP1;P1;durP2;ratioP2;P2;SDS_P1;SDS_P2;PMS_P1;PMS_P2;Temp;Humidity;BMP_temperature;BMP_pressure;BME280_temperature;BME280_humidity;BME280_pressure;Samples;Min_cycle;Max_cycle;Signal;HPM_P1;HPM_P2
2022/06/08 00:00:44;;;;;;;;;;;;;;;17.39;80.07;100089.83;84899;1324;25411;-70
2022/06/08 00:02:52;;;;;;;;;;;;;;;17.40;80.31;100093.85;84875;1322;22552;-70
2022/06/08 00:04:58;;;;;;;;;;;;;;;17.41;80.39;100097.12;84875;1323;22558;-70
2022/06/08 00:07:04;;;;;;;;;;;;;;;17.40;80.29;100100.89;84880;1323;22566;-70
2022/06/08 00:09:10;;;;;;;;;;;;;;;17.39;80.29;100107.29;84849;1325;22799;-70
2022/06/08 00:11:17;;;;;;;;;;;;;;;17.39;80.38;100108.00;84871;1321;22562;-70
2022/06/08 00:13:23;;;;;;;;;;;;;;;17.40;80.53;100106.54;84871;1322;22625;-70
2022/06/08 00:15:29;;;;;;;;;;;;;;;17.40;80.57;100110.42;84887;1323;22570;-70
2022/06/08 00:17:35;;;;;;;;;;;;;;;17.39;80.72;100108.20;84871;1323;22558;-71
2022/06/08 00:19:41;;;;;;;;;;;;;;;17.39;80.85;100105.56;84853;1323;22567;-70
2022/06/08 00:21:47;;;;;;;;;;;;;;;17.40;81.06;100109.55;84875;1323;22669;-70
2022/06/08 00:23:53;;;;;;;;;;;;;;;17.42;81.26;100108.48;84871;1324;22587;-70
2022/06/08 00:25:59;;;;;;;;;;;;;;;17.44;81.14;100107.52;84856;1323;22775;-70
2022/06/08 00:28:06;;;;;;;;;;;;;;;17.45;81.12;100105.85;84861;1323;22579;-70
2022/06/08 00:30:13;;;;;;;;;;;;;;;17.48;81.28;100107.39;84857;1324;22614;-71
2022/06/08 00:32:19;;;;;;;;;;;;;;;17.49;81.38;100103.92;84869;1322;22967;-70
2022/06/08 00:34:25;;;;;;;;;;;;;;;17.51;81.32;100104.84;84867;1324;22576;-71
2022/06/08 00:36:31;;;;;;;;;;;;;;;17.54;81.33;100106.45;84868;1323;25416;-71
2022/06/08 00:38:37;;;;;;;;;;;;;;;17.55;81.32;100106.89;84863;1324;22573;-70
2022/06/08 00:40:48;;;;;;;;;;;;;;;17.58;81.49;100108.97;84877;1323;22863;-70
2022/06/08 00:42:54;;;;;;;;;;;;;;;17.60;81.56;100107.63;84881;1324;22586;-69
2022/06/08 00:45:01;;;;;;;;;;;;;;;17.62;81.55;100101.98;84888;1324;25931;-70
2022/06/08 00:47:08;;;;;;;;;;;;;;;17.63;81.46;100102.25;84906;1323;22783;-70
2022/06/08 00:49:17;;;;;;;;;;;;;;;17.63;81.52;100102.10;84883;1324;24579;-70
2022/06/08 00:51:23;;;;;;;;;;;;;;;17.63;81.57;100099.45;84891;1322;22862;-71
2022/06/08 00:53:32;;;;;;;;;;;;;;;17.60;81.62;100089.04;84862;1322;22574;-70
2022/06/08 00:55:39;;;;;;;;;;;;;;;17.58;81.65;100082.30;84826;1322;22561;-70
2022/06/08 00:57:47;;;;;;;;;;;;;;;17.57;81.75;100082.80;84809;1324;24381;-71
2022/06/08 00:59:53;;;;;;;;;;;;;;;17.54;81.73;100084.88;84793;1327;22563;-70
2022/06/08 01:01:59;;;;;;;;;;;;;;;17.52;81.89;100089.45;84874;1323;25431;-70
2022/06/08 01:04:10;;;;;;;;;;;;;;;17.49;81.92;100085.44;84885;1324;22576;-72
2022/06/08 01:06:19;;;;;;;;;;;;;;;17.45;82.09;100081.67;84877;1323;22692;-71
2022/06/08 01:08:29;;;;;;;;;;;;;;;17.43;82.25;100082.72;84878;1324;22751;-69
2022/06/08 01:10:38;;;;;;;;;;;;;;;17.41;82.31;100078.07;84887;1324;22555;-71
2022/06/08 01:12:44;;;;;;;;;;;;;;;17.38;82.58;100075.44;84882;1324;22575;-71
2022/06/08 01:14:50;;;;;;;;;;;;;;;17.39;82.68;100076.81;84906;1323;22574;-71
2022/06/08 01:17:06;;;;;;;;;;;;;;;17.39;82.77;100075.90;84798;1322;22570;-69
2022/06/08 01:19:13;;;;;;;;;;;;;;;17.39;82.87;100069.38;84853;1324;22572;-71
2022/06/08 01:21:46;;;;;;;;;;;;;;;17.38;82.92;100066.80;84888;1323;22757;-70
2022/06/08 01:23:54;;;;;;;;;;;;;;;17.38;83.06;100063.47;84814;1327;22569;-70
2022/06/08 01:26:12;;;;;;;;;;;;;;;17.38;83.12;100058.69;84878;1323;22559;-70
2022/06/08 01:28:20;;;;;;;;;;;;;;;17.39;83.21;100048.58;84868;1324;22573;-71
2022/06/08 01:30:29;;;;;;;;;;;;;;;17.41;83.31;100045.45;84881;1324;22708;-70
2022/06/08 01:32:38;;;;;;;;;;;;;;;17.42;83.36;100039.02;84887;1324;22611;-70
2022/06/08 01:34:51;;;;;;;;;;;;;;;17.44;83.37;100032.19;84904;1324;25407;-71
2022/06/08 01:37:08;;;;;;;;;;;;;;;17.46;83.30;100025.66;84880;1324;22565;-70
2022/06/08 01:39:18;;;;;;;;;;;;;;;17.49;83.31;100020.68;84877;1324;22569;-70
2022/06/08 01:41:44;;;;;;;;;;;;;;;17.52;83.27;100019.08;84912;1323;22563;-71
2022/06/08 01:43:55;;;;;;;;;;;;;;;17.51;83.13;100017.68;84886;1324;22747;-70
2022/06/08 01:46:17;;;;;;;;;;;;;;;17.50;82.78;100018.67;84909;1323;22585;-71
2022/06/08 01:48:33;;;;;;;;;;;;;;;17.47;82.86;100023.51;84862;1323;22589;-70
2022/06/08 01:50:46;;;;;;;;;;;;;;;17.44;83.09;100028.48;84871;1323;22587;-71
2022/06/08 01:52:56;;;;;;;;;;;;;;;17.42;83.16;100026.35;84898;1324;24225;-71
2022/06/08 01:55:09;;;;;;;;;;;;;;;17.39;83.23;100029.73;84884;1323;22716;-71
2022/06/08 01:57:24;;;;;;;;;;;;;;;17.36;83.26;100029.09;84897;1319;22564;-70
2022/06/08 01:59:34;;;;;;;;;;;;;;;17.32;83.28;100034.48;84888;1321;22582;-70
2022/06/08 02:01:43;;;;;;;;;;;;;;;17.26;83.26;100034.86;84904;1324;22581;-70
2022/06/08 02:03:56;;;;;;;;;;;;;;;17.23;83.36;100032.30;84899;1323;22562;-70
2022/06/08 02:06:06;;;;;;;;;;;;;;;17.18;83.27;100027.17;84892;1324;22549;-70
2022/06/08 02:08:16;;;;;;;;;;;;;;;17.13;83.29;100024.92;84891;1322;22888;-70
2022/06/08 02:10:25;;;;;;;;;;;;;;;17.07;83.14;100024.42;84897;1320;24225;-70
2022/06/08 02:12:32;;;;;;;;;;;;;;;17.03;83.31;100023.42;84890;1323;22611;-71
2022/06/08 02:14:40;;;;;;;;;;;;;;;16.99;83.27;100019.84;84893;1323;22631;-71
2022/06/08 02:16:49;;;;;;;;;;;;;;;16.96;83.25;100016.55;84877;1328;25236;-70
2022/06/08 02:18:57;;;;;;;;;;;;;;;16.95;83.59;100016.79;84891;1324;22769;-70
2022/06/08 02:21:07;;;;;;;;;;;;;;;16.97;83.63;100013.84;84879;1325;25409;-70
2022/06/08 02:23:16;;;;;;;;;;;;;;;16.97;83.57;100013.82;84773;1327;22889;-71
2022/06/08 02:25:26;;;;;;;;;;;;;;;16.97;83.70;100015.40;84898;1325;22930;-70
2022/06/08 02:27:36;;;;;;;;;;;;;;;16.94;83.47;100016.67;84923;1323;22561;-69
2022/06/08 02:29:45;;;;;;;;;;;;;;;16.93;83.46;100017.86;84873;1323;22562;-70
2022/06/08 02:31:53;;;;;;;;;;;;;;;16.89;83.29;100020.92;84880;1322;22563;-71
2022/06/08 02:36:27;;;;;;;;;;;;;;;16.78;83.11;100027.16;84905;1323;22621;-70
2022/06/08 02:38:36;;;;;;;;;;;;;;;16.71;82.97;100024.09;84877;1323;22588;-71
2022/06/08 02:40:44;;;;;;;;;;;;;;;16.64;82.77;100025.49;84905;1322;22570;-69
2022/06/08 02:42:51;;;;;;;;;;;;;;;16.56;82.80;100029.52;84878;1324;22593;-71
2022/06/08 02:45:01;;;;;;;;;;;;;;;16.48;82.91;100028.98;84900;1322;22823;-70
2022/06/08 02:47:10;;;;;;;;;;;;;;;16.44;83.06;100034.41;84904;1327;22558;-71
2022/06/08 02:49:16;;;;;;;;;;;;;;;16.40;83.30;100037.29;84863;1324;22589;-70
2022/06/08 02:51:27;;;;;;;;;;;;;;;16.35;83.33;100039.89;84910;1325;22891;-70
2022/06/08 02:53:52;;;;;;;;;;;;;;;16.32;83.51;100039.95;84882;1324;22556;-70
2022/06/08 02:56:03;;;;;;;;;;;;;;;16.29;83.84;100036.84;84908;1324;22572;-71
2022/06/08 02:58:13;;;;;;;;;;;;;;;16.28;83.96;100031.96;84898;1323;22560;-70
2022/06/08 03:00:23;;;;;;;;;;;;;;;16.25;83.91;100021.91;84698;1324;254184;-70
2022/06/08 03:02:32;;;;;;;;;;;;;;;16.23;84.21;100024.17;84903;1325;24214;-71
2022/06/08 03:04:42;;;;;;;;;;;;;;;16.22;84.26;100028.80;84880;1324;22575;-71
2022/06/08 03:06:51;;;;;;;;;;;;;;;16.23;84.44;100031.73;84912;1324;22557;-69
2022/06/08 03:08:58;;;;;;;;;;;;;;;16.27;84.64;100028.30;84903;1323;22566;-70
2022/06/08 03:11:05;;;;;;;;;;;;;;;16.31;84.93;100029.48;84897;1324;22846;-71
2022/06/08 03:13:12;;;;;;;;;;;;;;;16.33;85.07;100029.65;84879;1324;22585;-71
2022/06/08 03:15:21;;;;;;;;;;;;;;;16.35;84.99;100032.17;84876;1322;22879;-69
2022/06/08 03:17:30;;;;;;;;;;;;;;;16.38;85.07;100030.94;84897;1324;25415;-71
2022/06/08 03:19:37;;;;;;;;;;;;;;;16.41;85.26;100034.96;84886;1324;24233;-70
2022/06/08 03:21:43;;;;;;;;;;;;;;;16.43;85.20;100036.76;84872;1324;22564;-70
2022/06/08 03:23:49;;;;;;;;;;;;;;;16.47;85.48;100036.79;84884;1324;24231;-71
2022/06/08 03:25:55;;;;;;;;;;;;;;;16.53;85.57;100036.80;84876;1324;25287;-70
2022/06/08 03:28:01;;;;;;;;;;;;;;;16.58;85.50;100037.30;84903;1324;25125;-71
2022/06/08 03:30:10;;;;;;;;;;;;;;;16.64;85.63;100032.66;84822;1328;24342;-69
2022/06/08 03:32:16;;;;;;;;;;;;;;;16.72;85.64;100030.70;84880;1325;22526;-71
2022/06/08 03:34:22;;;;;;;;;;;;;;;16.97;86.19;100029.90;84869;1322;22834;-70
2022/06/08 03:36:28;;;;;;;;;;;;;;;17.50;86.33;100023.69;84881;1323;22988;-71
2022/06/08 03:38:34;;;;;;;;;;;;;;;17.95;85.76;100017.21;84888;1323;23943;-70
2022/06/08 03:40:40;;;;;;;;;;;;;;;18.39;85.58;100013.02;84909;1324;22619;-70
2022/06/08 03:42:46;;;;;;;;;;;;;;;18.85;84.70;100009.27;84895;1320;22569;-70
2022/06/08 03:44:52;;;;;;;;;;;;;;;19.13;82.82;100006.95;84882;1325;22588;-70
2022/06/08 03:47:00;;;;;;;;;;;;;;;19.10;81.30;100011.42;84874;1323;24263;-70
2022/06/08 03:49:08;;;;;;;;;;;;;;;19.13;81.11;100014.67;84883;1324;22632;-71
2022/06/08 03:51:14;;;;;;;;;;;;;;;19.35;81.38;100015.77;84881;1328;22564;-71
2022/06/08 03:53:22;;;;;;;;;;;;;;;19.50;80.47;100015.61;84854;1322;22569;-70
2022/06/08 03:55:28;;;;;;;;;;;;;;;19.47;79.34;100016.02;84889;1324;22676;-69
2022/06/08 03:57:34;;;;;;;;;;;;;;;19.31;78.72;100019.08;84866;1324;22566;-69
2022/06/08 03:59:41;;;;;;;;;;;;;;;19.20;78.59;100026.66;84894;1318;22672;-70
2022/06/08 04:01:47;;;;;;;;;;;;;;;19.10;78.56;100030.45;84873;1322;22558;-70
2022/06/08 04:03:54;;;;;;;;;;;;;;;19.02;78.79;100029.68;84880;1324;22575;-70
2022/06/08 04:06:00;;;;;;;;;;;;;;;18.99;78.96;100030.27;84887;1324;22596;-70
2022/06/08 04:08:07;;;;;;;;;;;;;;;18.98;78.90;100028.60;84875;1324;22699;-70
2022/06/08 04:10:33;;;;;;;;;;;;;;;19.05;79.53;100029.09;84888;1324;24363;-70
2022/06/08 04:12:58;;;;;;;;;;;;;;;19.25;79.65;100033.74;84897;1323;23891;-70
2022/06/08 04:15:05;;;;;;;;;;;;;;;19.34;79.20;100036.70;84879;1322;22556;-70
2022/06/08 04:17:11;;;;;;;;;;;;;;;19.36;78.75;100039.21;84870;1324;22597;-70
2022/06/08 04:19:17;;;;;;;;;;;;;;;19.31;78.30;100038.52;84856;1324;22553;-70
2022/06/08 04:21:23;;;;;;;;;;;;;;;19.28;78.31;100039.86;84871;1324;25414;-70
2022/06/08 04:23:31;;;;;;;;;;;;;;;19.25;78.39;100038.96;84892;1327;22726;-71
2022/06/08 04:25:37;;;;;;;;;;;;;;;19.25;78.23;100040.06;84892;1324;22570;-70
2022/06/08 04:28:02;;;;;;;;;;;;;;;19.22;78.10;100044.70;84878;1323;25409;-70
2022/06/08 04:30:27;;;;;;;;;;;;;;;19.20;78.24;100047.24;84851;1324;22578;-70
2022/06/08 04:32:51;;;;;;;;;;;;;;;19.18;78.35;100047.54;84782;1326;22566;-71
2022/06/08 04:34:58;;;;;;;;;;;;;;;19.17;78.43;100051.14;84789;1326;22540;-69
2022/06/08 04:37:04;;;;;;;;;;;;;;;19.18;78.37;100049.89;84788;1325;22591;-70
2022/06/08 04:39:11;;;;;;;;;;;;;;;19.16;78.46;100056.02;84856;1323;22567;-70
2022/06/08 04:41:17;;;;;;;;;;;;;;;19.11;78.31;100056.19;84874;1324;22562;-70
2022/06/08 04:43:23;;;;;;;;;;;;;;;19.10;78.45;100057.92;84897;1324;25289;-70
2022/06/08 04:45:30;;;;;;;;;;;;;;;19.06;78.28;100063.52;84876;1323;22609;-71
2022/06/08 04:47:38;;;;;;;;;;;;;;;19.02;78.51;100062.04;84815;1326;22547;-70
2022/06/08 04:49:44;;;;;;;;;;;;;;;19.01;78.61;100062.52;84879;1324;24441;-69
2022/06/08 04:51:53;;;;;;;;;;;;;;;18.99;78.58;100058.21;84864;1324;24273;-70
2022/06/08 04:53:59;;;;;;;;;;;;;;;18.94;78.61;100059.34;84874;1324;22566;-70
2022/06/08 04:56:10;;;;;;;;;;;;;;;18.88;78.78;100063.52;84819;1327;24060;-70
2022/06/08 04:58:20;;;;;;;;;;;;;;;18.81;78.76;100067.39;84876;1324;24187;-70
2022/06/08 05:00:26;;;;;;;;;;;;;;;18.77;79.02;100066.84;84829;1325;22582;-70
2022/06/08 05:02:44;;;;;;;;;;;;;;;18.74;79.12;100069.69;84885;1320;24013;-71
2022/06/08 05:04:51;;;;;;;;;;;;;;;18.75;79.59;100068.02;84876;1324;22594;-75
2022/06/08 05:06:57;;;;;;;;;;;;;;;18.80;79.99;100064.66;84885;1324;22597;-75
2022/06/08 05:09:03;;;;;;;;;;;;;;;18.90;80.21;100065.64;84886;1324;22562;-75
2022/06/08 05:11:09;;;;;;;;;;;;;;;19.04;80.36;100068.80;84872;1323;22560;-75
2022/06/08 05:13:16;;;;;;;;;;;;;;;19.17;80.12;100070.45;84875;1323;22782;-71
2022/06/08 05:15:23;;;;;;;;;;;;;;;19.35;80.77;100070.75;84870;1325;22579;-71
2022/06/08 05:17:29;;;;;;;;;;;;;;;19.68;80.69;100076.13;84880;1324;22660;-70
2022/06/08 05:19:35;;;;;;;;;;;;;;;19.88;79.64;100074.13;84860;1322;22778;-71
2022/06/08 05:21:41;;;;;;;;;;;;;;;20.13;79.04;100071.36;84858;1324;22573;-71
2022/06/08 05:23:47;;;;;;;;;;;;;;;20.42;78.20;100068.42;84849;1324;22582;-72
2022/06/08 05:25:54;;;;;;;;;;;;;;;20.89;77.78;100070.14;84893;1324;22834;-71
2022/06/08 05:28:00;;;;;;;;;;;;;;;21.69;78.26;100063.50;84894;1326;22834;-71
2022/06/08 05:30:09;;;;;;;;;;;;;;;22.83;76.18;100053.00;84880;1324;25230;-72
2022/06/08 05:32:15;;;;;;;;;;;;;;;23.67;71.24;100055.33;84869;1328;22572;-71
2022/06/08 05:34:21;;;;;;;;;;;;;;;24.51;69.40;100053.25;84886;1327;22559;-71
2022/06/08 05:36:27;;;;;;;;;;;;;;;25.41;64.79;100051.20;84863;1327;22561;-71
2022/06/08 05:38:35;;;;;;;;;;;;;;;26.17;61.19;100044.86;84872;1325;22576;-71
2022/06/08 05:40:41;;;;;;;;;;;;;;;27.01;59.29;100041.17;84864;1323;23871;-72
2022/06/08 05:42:47;;;;;;;;;;;;;;;27.73;56.89;100046.53;84862;1324;22796;-71
2022/06/08 05:44:53;;;;;;;;;;;;;;;28.42;55.55;100053.73;84853;1323;22623;-71
2022/06/08 05:46:59;;;;;;;;;;;;;;;28.46;52.26;100058.19;84872;1325;25427;-71
2022/06/08 05:49:05;;;;;;;;;;;;;;;28.67;51.70;100057.86;84881;1323;22561;-72
2022/06/08 05:51:12;;;;;;;;;;;;;;;28.63;50.44;100058.17;84878;1319;22590;-71
2022/06/08 05:53:18;;;;;;;;;;;;;;;28.66;51.28;100059.41;84890;1324;22565;-71
2022/06/08 05:55:25;;;;;;;;;;;;;;;29.00;50.03;100059.80;84803;1328;22735;-71
2022/06/08 05:57:31;;;;;;;;;;;;;;;28.99;50.26;100059.69;84787;1325;22567;-72
2022/06/08 05:59:37;;;;;;;;;;;;;;;28.61;49.64;100061.02;84847;1325;24222;-71
2022/06/08 06:01:43;;;;;;;;;;;;;;;28.11;49.91;100060.62;84819;1322;22693;-71
2022/06/08 06:03:49;;;;;;;;;;;;;;;27.68;50.64;100061.11;84847;1328;22656;-71
2022/06/08 06:05:56;;;;;;;;;;;;;;;27.29;51.53;100060.41;84878;1323;24213;-71
2022/06/08 06:08:02;;;;;;;;;;;;;;;26.93;51.99;100059.65;84887;1324;22667;-70
2022/06/08 06:10:09;;;;;;;;;;;;;;;26.57;52.47;100060.61;84863;1324;22560;-71
2022/06/08 06:12:15;;;;;;;;;;;;;;;26.17;52.96;100059.91;84867;1328;22557;-71
2022/06/08 06:14:22;;;;;;;;;;;;;;;25.81;53.74;100058.94;84798;1328;22565;-70
2022/06/08 06:16:28;;;;;;;;;;;;;;;25.47;53.76;100057.63;84896;1325;23938;-72
2022/06/08 06:18:34;;;;;;;;;;;;;;;25.09;54.47;100059.55;84876;1328;22588;-72
2022/06/08 06:20:40;;;;;;;;;;;;;;;24.79;55.13;100056.85;84885;1328;22567;-72
2022/06/08 06:22:46;;;;;;;;;;;;;;;24.51;56.00;100060.30;84876;1324;22617;-71
2022/06/08 06:24:52;;;;;;;;;;;;;;;24.25;56.02;100063.13;84871;1324;24296;-71
2022/06/08 06:26:58;;;;;;;;;;;;;;;23.98;56.30;100058.02;84807;1327;22558;-71
2022/06/08 06:29:04;;;;;;;;;;;;;;;23.71;57.24;100063.16;84878;1328;22520;-71
2022/06/08 06:31:11;;;;;;;;;;;;;;;23.57;58.13;100065.23;84892;1324;22976;-71
2022/06/08 06:33:17;;;;;;;;;;;;;;;23.45;58.77;100068.88;84890;1328;24354;-72
2022/06/08 06:35:25;;;;;;;;;;;;;;;23.34;59.05;100066.21;84818;1327;22709;-71
2022/06/08 06:37:31;;;;;;;;;;;;;;;23.16;59.08;100067.03;84789;1327;22567;-71
2022/06/08 06:39:37;;;;;;;;;;;;;;;23.03;59.59;100068.79;84799;1327;22600;-72
2022/06/08 06:41:43;;;;;;;;;;;;;;;22.91;60.11;100065.85;84853;1326;22567;-72
2022/06/08 06:43:49;;;;;;;;;;;;;;;22.82;60.37;100064.15;84891;1328;22547;-72
2022/06/08 06:45:55;;;;;;;;;;;;;;;22.69;60.42;100065.20;84887;1327;22574;-72
2022/06/08 06:48:01;;;;;;;;;;;;;;;22.52;60.27;100063.05;84894;1324;22584;-72
2022/06/08 06:50:12;;;;;;;;;;;;;;;22.35;60.92;100060.56;84891;1325;25261;-71
2022/06/08 06:52:19;;;;;;;;;;;;;;;22.26;61.49;100057.47;84889;1325;22841;-71
2022/06/08 06:54:25;;;;;;;;;;;;;;;22.24;61.81;100057.48;84885;1325;22570;-71
2022/06/08 06:56:32;;;;;;;;;;;;;;;22.26;62.24;100062.48;84882;1328;22573;-71
2022/06/08 06:58:38;;;;;;;;;;;;;;;22.27;62.06;100064.19;84889;1323;23231;-71
2022/06/08 07:00:44;;;;;;;;;;;;;;;22.24;62.39;100065.50;84868;1323;25922;-71
2022/06/08 07:02:50;;;;;;;;;;;;;;;22.26;62.79;100061.92;84867;1328;22553;-71
2022/06/08 07:04:56;;;;;;;;;;;;;;;22.32;63.07;100060.64;84876;1322;22561;-72
2022/06/08 07:07:02;;;;;;;;;;;;;;;22.41;63.04;100058.08;84876;1325;22900;-72
2022/06/08 07:09:08;;;;;;;;;;;;;;;22.55;63.30;100058.57;84897;1324;22556;-72
2022/06/08 07:11:35;;;;;;;;;;;;;;;22.63;63.02;100053.84;84880;1325;22568;-71
2022/06/08 07:13:43;;;;;;;;;;;;;;;22.62;62.59;100053.98;84870;1324;22580;-72
2022/06/08 07:15:49;;;;;;;;;;;;;;;22.64;63.04;100056.98;84888;1324;25409;-71
2022/06/08 07:17:55;;;;;;;;;;;;;;;22.75;63.28;100056.61;84899;1322;22799;-71
2022/06/08 07:20:04;;;;;;;;;;;;;;;22.84;62.78;100058.11;84883;1322;22554;-71
2022/06/08 07:22:11;;;;;;;;;;;;;;;22.83;62.50;100060.84;84905;1328;24297;-70
2022/06/08 07:24:30;;;;;;;;;;;;;;;22.81;62.49;100057.89;84906;1325;22574;-71
2022/06/08 07:26:36;;;;;;;;;;;;;;;22.80;62.43;100059.05;84882;1324;22576;-71
2022/06/08 07:28:42;;;;;;;;;;;;;;;22.74;62.27;100061.06;84890;1320;22664;-71
2022/06/08 07:30:48;;;;;;;;;;;;;;;22.64;62.03;100063.91;84789;1328;22564;-71
2022/06/08 07:32:57;;;;;;;;;;;;;;;22.55;62.23;100067.22;84850;1324;22572;-72
2022/06/08 07:35:03;;;;;;;;;;;;;;;22.47;62.53;100064.98;84896;1328;22575;-70
2022/06/08 07:37:09;;;;;;;;;;;;;;;22.37;62.45;100067.98;84900;1324;25257;-71
2022/06/08 07:39:16;;;;;;;;;;;;;;;22.27;62.15;100064.01;84910;1324;22797;-71
2022/06/08 07:41:22;;;;;;;;;;;;;;;22.12;61.93;100062.50;84905;1328;22595;-71
2022/06/08 07:43:28;;;;;;;;;;;;;;;21.99;62.16;100063.16;84898;1322;22576;-72
2022/06/08 07:45:34;;;;;;;;;;;;;;;21.85;62.25;100067.73;84882;1325;22562;-71
2022/06/08 07:50:00;;;;;;;;;;;;;;;21.75;63.23;100076.52;84881;1324;24233;-71
2022/06/08 07:52:09;;;;;;;;;;;;;;;21.70;63.18;100071.44;84909;1328;24316;-71
2022/06/08 07:54:14;;;;;;;;;;;;;;;21.68;63.51;100071.13;84905;1324;22592;-71
2022/06/08 07:56:21;;;;;;;;;;;;;;;21.67;64.28;100074.15;84911;1324;25408;-71
2022/06/08 07:58:27;;;;;;;;;;;;;;;21.70;64.52;100076.77;84902;1328;25317;-71
2022/06/08 08:00:33;;;;;;;;;;;;;;;21.73;64.37;100077.75;84875;1328;22571;-71
2022/06/08 08:02:40;;;;;;;;;;;;;;;21.74;64.26;100075.17;84879;1324;22800;-71
2022/06/08 08:04:47;;;;;;;;;;;;;;;21.72;64.76;100076.75;84908;1324;22690;-71
2022/06/08 08:06:53;;;;;;;;;;;;;;;21.69;64.75;100073.49;84890;1325;22584;-71
2022/06/08 08:09:00;;;;;;;;;;;;;;;21.65;64.84;100076.28;84874;1324;25342;-71
2022/06/08 08:11:06;;;;;;;;;;;;;;;21.63;64.88;100072.86;84877;1324;24254;-71
2022/06/08 08:13:12;;;;;;;;;;;;;;;21.66;64.97;100071.92;84880;1324;22575;-71
2022/06/08 08:15:18;;;;;;;;;;;;;;;21.68;64.74;100068.97;84883;1324;22567;-72
2022/06/08 08:17:24;;;;;;;;;;;;;;;21.65;64.46;100068.98;84880;1324;25232;-72
2022/06/08 08:19:32;;;;;;;;;;;;;;;21.63;64.40;100067.42;84813;1325;22579;-72
2022/06/08 08:21:38;;;;;;;;;;;;;;;21.61;64.26;100069.52;84895;1325;25409;-72
2022/06/08 08:23:44;;;;;;;;;;;;;;;21.61;64.50;100069.36;84892;1323;22561;-71
2022/06/08 08:25:51;;;;;;;;;;;;;;;21.64;64.68;100068.02;84900;1324;24229;-71
2022/06/08 08:27:58;;;;;;;;;;;;;;;21.71;64.94;100072.77;84810;1326;22580;-71
2022/06/08 08:30:04;;;;;;;;;;;;;;;21.74;64.46;100070.05;84865;1323;22551;-71
2022/06/08 08:32:10;;;;;;;;;;;;;;;21.77;65.24;100074.39;84891;1324;25435;-71
2022/06/08 08:34:17;;;;;;;;;;;;;;;21.78;65.19;100073.40;84894;1325;24258;-72
2022/06/08 08:36:23;;;;;;;;;;;;;;;21.79;64.79;100074.85;84882;1323;23946;-71
2022/06/08 08:38:29;;;;;;;;;;;;;;;21.82;64.59;100076.70;84852;1324;22858;-71
2022/06/08 08:40:46;;;;;;;;;;;;;;;21.85;64.18;100077.49;84888;1325;25404;-71
2022/06/08 08:42:52;;;;;;;;;;;;;;;21.86;64.35;100071.34;84899;1324;25864;-71
2022/06/08 08:45:00;;;;;;;;;;;;;;;21.82;64.30;100075.70;84887;1324;22633;-71
2022/06/08 08:47:13;;;;;;;;;;;;;;;21.78;64.62;100077.48;84874;1324;25207;-71
2022/06/08 08:49:20;;;;;;;;;;;;;;;21.79;64.52;100081.80;84915;1324;25432;-71
2022/06/08 08:51:28;;;;;;;;;;;;;;;21.80;64.61;100086.45;84916;1324;22729;-71
2022/06/08 08:53:40;;;;;;;;;;;;;;;21.82;64.66;100083.46;84881;1324;22568;-71
2022/06/08 08:55:51;;;;;;;;;;;;;;;21.84;64.76;100086.67;84884;1324;22600;-71
2022/06/08 08:58:02;;;;;;;;;;;;;;;21.89;64.78;100081.94;84798;1327;22573;-72
2022/06/08 09:00:15;;;;;;;;;;;;;;;21.99;64.36;100078.41;84804;1327;22607;-71
2022/06/08 09:04:47;;;;;;;;;;;;;;;22.64;64.87;100072.27;84883;1328;22548;-75
2022/06/08 09:06:53;;;;;;;;;;;;;;;23.13;64.58;100070.69;84893;1324;22549;-76
2022/06/08 09:09:02;;;;;;;;;;;;;;;23.68;63.18;100068.75;84887;1325;22619;-75
2022/06/08 09:11:16;;;;;;;;;;;;;;;24.04;61.61;100065.58;84903;1325;22596;-75
2022/06/08 09:13:25;;;;;;;;;;;;;;;24.25;60.21;100070.31;84869;1324;22566;-73
2022/06/08 09:15:48;;;;;;;;;;;;;;;24.32;59.84;100066.40;84886;1323;22635;-74
2022/06/08 09:17:56;;;;;;;;;;;;;;;24.48;58.92;100070.11;84895;1324;25929;-73
2022/06/08 09:20:04;;;;;;;;;;;;;;;24.58;58.82;100064.82;84897;1323;24177;-74
2022/06/08 09:22:25;;;;;;;;;;;;;;;24.65;59.00;100066.55;84888;1324;22583;-74
2022/06/08 09:24:34;;;;;;;;;;;;;;;24.64;58.18;100069.36;84881;1324;22589;-74
2022/06/08 09:26:40;;;;;;;;;;;;;;;24.64;58.36;100076.19;84877;1327;26012;-74
2022/06/08 09:28:47;;;;;;;;;;;;;;;24.63;58.26;100074.95;84900;1325;22577;-74
2022/06/08 09:30:54;;;;;;;;;;;;;;;24.61;58.32;100072.00;84870;1325;22587;-74
2022/06/08 09:33:01;;;;;;;;;;;;;;;24.58;58.37;100073.20;84885;1324;22851;-74
2022/06/08 09:35:21;;;;;;;;;;;;;;;24.52;57.75;100072.07;84893;1325;24357;-74
2022/06/08 09:37:27;;;;;;;;;;;;;;;24.50;57.68;100071.02;84814;1327;22573;-74
2022/06/08 09:39:34;;;;;;;;;;;;;;;24.53;57.55;100070.51;84873;1325;22577;-74
2022/06/08 09:41:41;;;;;;;;;;;;;;;24.62;58.32;100067.94;84877;1327;22949;-74
2022/06/08 09:44:01;;;;;;;;;;;;;;;24.86;58.19;100070.37;84882;1328;22584;-74
2022/06/08 09:46:10;;;;;;;;;;;;;;;25.08;57.88;100073.96;84887;1328;22619;-74
2022/06/08 09:53:33;;;;;;;;;;;;;;;25.29;55.59;100070.91;84869;1324;22607;-71
2022/06/08 09:55:46;;;;;;;;;;;;;;;25.36;55.86;100066.22;84861;1324;23896;-72
2022/06/08 09:57:58;;;;;;;;;;;;;;;25.40;55.49;100065.59;84844;1325;22868;-71
2022/06/08 10:00:18;;;;;;;;;;;;;;;25.43;55.13;100067.12;84860;1325;22672;-72
2022/06/08 10:02:29;;;;;;;;;;;;;;;25.39;55.37;100071.05;84838;1324;22976;-71
2022/06/08 10:04:43;;;;;;;;;;;;;;;25.34;54.89;100072.30;84852;1324;22586;-71
2022/06/08 10:06:54;;;;;;;;;;;;;;;25.34;55.42;100078.39;84852;1324;22584;-72
2022/06/08 10:09:05;;;;;;;;;;;;;;;25.36;55.48;100069.45;84908;1323;24348;-72
2022/06/08 10:13:35;;;;;;;;;;;;;;;25.38;54.83;100067.60;84887;1323;24607;-72
2022/06/08 10:15:43;;;;;;;;;;;;;;;25.42;54.44;100062.73;84899;1324;22580;-72
2022/06/08 10:17:53;;;;;;;;;;;;;;;25.51;54.29;100065.14;84869;1324;22989;-72
2022/06/08 10:20:01;;;;;;;;;;;;;;;25.54;53.41;100057.78;84880;1324;22716;-72
2022/06/08 10:22:09;;;;;;;;;;;;;;;25.57;53.41;100055.21;84890;1324;22564;-72
2022/06/08 10:24:18;;;;;;;;;;;;;;;25.64;53.70;100061.16;84889;1324;22570;-72
2022/06/08 10:26:28;;;;;;;;;;;;;;;25.66;53.71;100058.59;84895;1324;22843;-72
2022/06/08 10:28:38;;;;;;;;;;;;;;;25.72;53.81;100056.48;84890;1324;22615;-73
2022/06/08 10:30:48;;;;;;;;;;;;;;;25.77;53.16;100054.97;84847;1324;24299;-72
2022/06/08 10:32:57;;;;;;;;;;;;;;;25.71;52.82;100055.22;84884;1325;22698;-71
2022/06/08 10:35:13;;;;;;;;;;;;;;;25.68;52.27;100053.39;84891;1324;22573;-71
2022/06/08 10:37:22;;;;;;;;;;;;;;;25.61;52.37;100051.04;84879;1324;22741;-72
2022/06/08 10:39:32;;;;;;;;;;;;;;;25.55;52.44;100047.56;84820;1327;22558;-71
2022/06/08 10:44:04;;;;;;;;;;;;;;;25.74;52.81;100052.36;84585;1329;22573;-71
2022/06/08 10:46:29;;;;;;;;;;;;;;;25.78;52.54;100053.73;84901;1323;22687;-73
2022/06/08 10:48:46;;;;;;;;;;;;;;;25.84;52.28;100053.61;84856;1327;22914;-73
2022/06/08 10:51:24;;;;;;;;;;;;;;;26.01;52.64;100053.23;84876;1324;22795;-71
2022/06/08 10:56:04;;;;;;;;;;;;;;;26.35;51.44;100047.88;84821;1325;25948;-71
2022/06/08 10:58:21;;;;;;;;;;;;;;;26.46;51.20;100049.82;84906;1325;25394;-71
2022/06/08 11:01:04;;;;;;;;;;;;;;;26.62;50.09;100042.33;84675;1320;298589;-71
2022/06/08 11:03:23;;;;;;;;;;;;;;;26.69;50.21;100040.30;84880;1324;22563;-71
2022/06/08 11:05:34;;;;;;;;;;;;;;;26.70;49.69;100039.09;84880;1322;23024;-71
2022/06/08 11:08:12;;;;;;;;;;;;;;;26.76;49.70;100037.79;84887;1320;24366;-71
2022/06/08 11:10:20;;;;;;;;;;;;;;;26.80;49.56;100038.38;84903;1328;22679;-71
2022/06/08 11:12:46;;;;;;;;;;;;;;;26.81;49.87;100036.59;84870;1324;25402;-70
2022/06/08 11:14:56;;;;;;;;;;;;;;;26.76;49.90;100034.25;84890;1324;22809;-72
2022/06/08 11:17:04;;;;;;;;;;;;;;;26.77;49.28;100034.59;84873;1324;22625;-70
2022/06/08 11:19:15;;;;;;;;;;;;;;;26.75;49.12;100037.15;84879;1324;22630;-70
2022/06/08 11:21:31;;;;;;;;;;;;;;;26.65;49.33;100035.14;84909;1324;25316;-70